createdAt,value
2023-02-14T00:00:42.883Z,51.67
2023-02-14T00:03:09.548Z,57.55
2023-02-14T00:05:36.243Z,58.58
2023-02-14T00:08:02.905Z,50.90
2023-02-14T00:10:29.557Z,51.38
2023-02-14T00:12:56.078Z,63.10
2023-02-14T00:15:23.021Z,51.17
2023-02-14T00:17:55.261Z,56.20
2023-02-14T00:22:49.749Z,46.22
2023-02-14T00:25:16.696Z,51.45
2023-02-14T00:27:43.306Z,51.13
2023-02-14T00:30:12.812Z,54.70
2023-02-14T00:32:40.607Z,47.72
2023-02-14T00:35:09.276Z,44.35
2023-02-14T00:37:36.749Z,49.15
2023-02-14T00:40:05.209Z,46.03
2023-02-14T00:42:32.007Z,55.55
2023-02-14T00:44:58.555Z,45.70
2023-02-14T00:47:25.241Z,57.20
2023-02-14T00:49:51.910Z,44.58
2023-02-14T00:52:18.604Z,55.95
2023-02-14T00:54:45.194Z,61.13
2023-02-14T00:57:13.818Z,51.05
2023-02-14T00:59:40.383Z,60.78
2023-02-14T01:02:07.255Z,50.13
2023-02-14T01:04:34.454Z,53.28
2023-02-14T01:07:01.041Z,54.50
2023-02-14T01:09:27.730Z,51.42
2023-02-14T01:11:54.438Z,82.50
2023-02-14T01:14:21.008Z,73.72
2023-02-14T01:16:49.531Z,57.67
2023-02-14T01:19:16.722Z,46.38
2023-02-14T01:21:43.952Z,58.38
2023-02-14T01:24:12.064Z,44.33
2023-02-14T01:26:39.482Z,67.45
2023-02-14T01:29:06.488Z,53.83
2023-02-14T01:31:35.060Z,53.72
2023-02-14T01:34:02.684Z,51.80
2023-02-14T01:36:32.910Z,59.00
2023-02-14T01:39:02.486Z,57.42
2023-02-14T01:41:32.774Z,60.05
2023-02-14T01:44:06.531Z,57.75
2023-02-14T01:46:36.470Z,65.95
2023-02-14T01:49:21.949Z,90.93
2023-02-14T01:52:33.473Z,57.30
2023-02-14T01:55:05.202Z,65.53
2023-02-14T01:57:44.035Z,45.57
2023-02-14T02:00:29.969Z,64.95
2023-02-14T02:02:58.767Z,66.15
2023-02-14T02:05:26.102Z,62.88
2023-02-14T02:07:58.904Z,72.03
2023-02-14T02:10:27.854Z,65.82
2023-02-14T02:12:55.014Z,67.68
2023-02-14T02:15:24.326Z,60.97
2023-02-14T02:18:08.752Z,64.13
2023-02-14T02:20:44.087Z,68.22
2023-02-14T02:23:41.808Z,70.32
2023-02-14T02:26:43.501Z,58.08
2023-02-14T02:29:48.593Z,58.27
2023-02-14T02:32:42.885Z,61.30
2023-02-14T02:35:37.619Z,59.13
2023-02-14T02:38:33.692Z,60.55
2023-02-14T02:41:09.352Z,55.42
2023-02-14T02:43:36.945Z,53.92
2023-02-14T02:46:29.754Z,61.17
2023-02-14T02:49:04.650Z,49.08
2023-02-14T02:52:03.093Z,51.05
2023-02-14T02:54:37.738Z,53.35
2023-02-14T02:57:09.282Z,49.05
2023-02-14T02:59:41.800Z,48.15
2023-02-14T03:02:23.628Z,48.50
2023-02-14T03:04:59.870Z,46.33
2023-02-14T03:07:41.317Z,45.75
2023-02-14T03:10:16.162Z,48.67
2023-02-14T03:13:11.964Z,51.38
2023-02-14T03:15:53.773Z,61.88
2023-02-14T03:18:39.046Z,41.72
2023-02-14T03:21:42.720Z,47.45
2023-02-14T03:24:27.698Z,46.15
2023-02-14T03:27:22.999Z,56.90
2023-02-14T03:30:17.990Z,47.28
2023-02-14T03:33:01.650Z,56.97
2023-02-14T03:35:47.261Z,57.17
2023-02-14T03:38:26.029Z,53.10
2023-02-14T03:40:58.279Z,45.60
2023-02-14T03:43:35.613Z,52.75
2023-02-14T03:46:11.828Z,55.80
2023-02-14T03:48:41.347Z,52.75
2023-02-14T03:51:11.128Z,61.33
2023-02-14T03:53:43.779Z,57.20
2023-02-14T03:56:10.401Z,50.85
2023-02-14T03:58:43.662Z,57.20
2023-02-14T04:01:20.867Z,53.95
2023-02-14T04:03:48.853Z,63.30
2023-02-14T04:06:18.541Z,53.25
2023-02-14T04:08:45.205Z,48.70
2023-02-14T04:11:12.288Z,62.45
2023-02-14T04:13:39.476Z,54.90
2023-02-14T04:16:07.005Z,52.05
2023-02-14T04:18:52.349Z,50.17
2023-02-14T04:21:18.943Z,52.05
2023-02-14T04:23:45.450Z,59.85
2023-02-14T04:26:12.075Z,54.22
2023-02-14T04:28:39.737Z,62.67
2023-02-14T04:31:07.093Z,55.58
2023-02-14T04:33:34.201Z,53.00
2023-02-14T04:36:01.291Z,45.70
2023-02-14T04:38:28.030Z,52.58
2023-02-14T04:40:54.702Z,58.60
2023-02-14T04:43:21.240Z,53.67
2023-02-14T04:45:47.828Z,53.17
2023-02-14T04:48:14.485Z,49.78
2023-02-14T04:50:41.222Z,57.28
2023-02-14T04:53:07.761Z,51.92
2023-02-14T04:55:37.033Z,50.65
2023-02-14T04:58:03.590Z,43.17
2023-02-14T05:00:30.248Z,48.03
2023-02-14T05:02:56.802Z,60.00
2023-02-14T05:05:23.354Z,48.22
2023-02-14T05:07:49.899Z,45.95
2023-02-14T05:10:16.740Z,52.63
2023-02-14T05:12:43.644Z,42.60
2023-02-14T05:15:10.444Z,52.55
2023-02-14T05:17:37.289Z,46.47
2023-02-14T05:20:07.348Z,46.42
2023-02-14T05:22:33.901Z,38.97
2023-02-14T05:25:00.535Z,48.13
2023-02-14T05:27:27.178Z,42.90
2023-02-14T05:29:53.935Z,54.83
2023-02-14T05:32:21.197Z,38.25
2023-02-14T05:34:47.789Z,41.13
2023-02-14T05:37:14.399Z,44.67
2023-02-14T05:39:43.584Z,49.45
2023-02-14T05:42:10.164Z,43.75
2023-02-14T05:44:36.730Z,43.22
2023-02-14T05:47:03.502Z,37.75
2023-02-14T05:49:30.012Z,44.13
2023-02-14T05:51:56.682Z,43.78
2023-02-14T05:54:23.268Z,45.22
2023-02-14T05:56:49.880Z,53.10
2023-02-14T05:59:16.441Z,42.15
2023-02-14T06:01:43.109Z,54.90
2023-02-14T06:04:09.677Z,49.58
2023-02-14T06:06:36.904Z,48.13
2023-02-14T06:09:03.815Z,57.28
2023-02-14T06:11:30.441Z,47.88
2023-02-14T06:13:57.428Z,46.03
2023-02-14T06:16:24.112Z,52.58
2023-02-14T06:18:50.624Z,43.17
2023-02-14T06:21:17.226Z,52.05
2023-02-14T06:23:43.778Z,55.58
2023-02-14T06:26:10.453Z,50.80
2023-02-14T06:28:36.999Z,53.83
2023-02-14T06:31:04.179Z,49.83
2023-02-14T06:33:30.926Z,61.35
2023-02-14T06:35:57.534Z,47.88
2023-02-14T06:38:24.104Z,58.55
2023-02-14T06:40:50.773Z,56.40
2023-02-14T06:43:17.271Z,60.78
2023-02-14T06:45:43.988Z,62.30
2023-02-14T06:48:10.553Z,58.70
2023-02-14T06:50:37.317Z,65.25
2023-02-14T06:53:03.873Z,64.47
2023-02-14T06:55:30.472Z,65.22
2023-02-14T06:57:57.159Z,58.58
2023-02-14T07:00:23.833Z,69.70
2023-02-14T07:02:50.421Z,74.50
2023-02-14T07:05:18.941Z,65.03
2023-02-14T07:07:46.367Z,65.25
2023-02-14T07:10:13.827Z,71.47
2023-02-14T07:12:40.699Z,68.18
2023-02-14T07:15:09.479Z,72.60
2023-02-14T07:17:36.005Z,67.97
2023-02-14T07:20:04.053Z,72.55
2023-02-14T07:22:30.718Z,78.80
2023-02-14T07:24:57.453Z,83.53
2023-02-14T07:27:24.194Z,89.88
2023-02-14T07:29:50.972Z,78.05
2023-02-14T07:32:17.736Z,81.63
2023-02-14T07:34:44.542Z,79.07
2023-02-14T07:37:11.194Z,86.95
2023-02-14T07:39:37.822Z,73.32
2023-02-14T07:42:04.376Z,79.15
2023-02-14T07:44:32.214Z,76.57
2023-02-14T07:46:58.733Z,69.43
2023-02-14T07:49:25.384Z,76.60
2023-02-14T07:51:52.027Z,73.30
2023-02-14T07:54:20.269Z,71.93
2023-02-14T07:56:46.944Z,71.57
2023-02-14T07:59:13.558Z,68.60
2023-02-14T08:01:40.258Z,71.10
2023-02-14T08:04:07.139Z,73.10
2023-02-14T08:06:33.919Z,63.65
2023-02-14T08:09:01.669Z,78.00
2023-02-14T08:11:46.964Z,65.35
2023-02-14T08:14:13.736Z,68.47
2023-02-14T08:16:40.364Z,63.83
2023-02-14T08:19:06.994Z,56.00
2023-02-14T08:21:33.928Z,75.07
2023-02-14T08:24:00.824Z,67.05
2023-02-14T08:26:27.530Z,67.53
2023-02-14T08:28:56.664Z,69.07
2023-02-14T08:31:35.699Z,63.08
2023-02-14T08:34:04.535Z,59.72
2023-02-14T08:36:31.106Z,73.25
2023-02-14T08:38:57.851Z,57.20
2023-02-14T08:41:24.573Z,69.78
2023-02-14T08:43:51.319Z,62.72
2023-02-14T08:46:18.107Z,70.00
2023-02-14T08:48:44.778Z,68.13
2023-02-14T08:51:17.137Z,65.43
2023-02-14T08:53:44.396Z,67.53
2023-02-14T08:56:17.242Z,65.15
2023-02-14T08:58:43.911Z,66.72
2023-02-14T09:01:17.951Z,57.97
2023-02-14T09:03:45.118Z,58.92
2023-02-14T09:06:16.886Z,57.42
2023-02-14T09:08:44.860Z,56.08
2023-02-14T09:11:14.621Z,59.15
2023-02-14T09:13:42.610Z,53.50
2023-02-14T09:16:11.764Z,51.90
2023-02-14T09:18:38.935Z,48.08
2023-02-14T09:21:14.726Z,49.45
2023-02-14T09:23:41.934Z,45.47
2023-02-14T09:26:11.152Z,48.10
2023-02-14T09:28:38.635Z,39.08
2023-02-14T09:31:13.577Z,49.63
2023-02-14T09:33:41.351Z,39.88
2023-02-14T09:36:26.901Z,41.15
2023-02-14T09:38:55.703Z,39.90
2023-02-14T09:41:31.203Z,42.33
2023-02-14T09:44:04.584Z,45.00
2023-02-14T09:46:42.325Z,43.17
2023-02-14T09:49:15.915Z,37.88
2023-02-14T09:51:48.627Z,37.97
2023-02-14T09:54:22.093Z,38.00
2023-02-14T09:56:55.825Z,33.03
2023-02-14T09:59:31.320Z,36.63
2023-02-14T10:02:03.896Z,38.35
2023-02-14T10:05:08.949Z,38.67
2023-02-14T10:08:06.902Z,30.55
2023-02-14T10:10:39.645Z,39.28
2023-02-14T10:13:29.782Z,35.70
2023-02-14T10:16:03.500Z,32.20
2023-02-14T10:18:46.436Z,50.30
2023-02-14T10:21:23.466Z,41.80
2023-02-14T10:23:57.652Z,22.63
2023-02-14T10:26:32.665Z,26.08
2023-02-14T10:28:59.262Z,27.92
2023-02-14T10:31:25.864Z,22.48
2023-02-14T10:34:00.844Z,19.23
2023-02-14T10:36:36.558Z,23.98
2023-02-14T10:39:40.671Z,26.73
2023-02-14T10:42:25.161Z,31.65
2023-02-14T10:45:03.736Z,22.88
2023-02-14T10:48:08.273Z,21.30
2023-02-14T10:50:46.855Z,19.05
2023-02-14T10:53:28.018Z,24.45
2023-02-14T10:56:01.283Z,22.05
2023-02-14T10:58:32.447Z,23.13
2023-02-14T11:01:05.550Z,27.37
2023-02-14T11:03:34.865Z,28.27
2023-02-14T11:06:01.413Z,36.05
2023-02-14T11:08:35.089Z,23.33
2023-02-14T11:11:07.482Z,17.63
2023-02-14T11:13:37.160Z,21.88
2023-02-14T11:16:39.926Z,21.95
2023-02-14T11:21:47.712Z,20.70
2023-02-14T11:24:31.943Z,16.92
2023-02-14T11:27:10.773Z,22.45
2023-02-14T11:29:43.536Z,25.38
2023-02-14T11:32:20.417Z,28.85
2023-02-14T11:35:00.482Z,28.02
2023-02-14T11:37:28.742Z,29.50
2023-02-14T11:39:58.342Z,26.90
2023-02-14T11:42:40.539Z,25.42
2023-02-14T11:45:08.695Z,25.15
2023-02-14T11:47:42.901Z,21.13
2023-02-14T11:50:24.617Z,21.17
2023-02-14T11:52:54.707Z,24.57
2023-02-14T11:55:35.878Z,21.73
2023-02-14T11:58:05.755Z,23.85
2023-02-14T12:00:33.761Z,20.13
2023-02-14T12:03:04.717Z,18.58
2023-02-14T12:05:35.353Z,19.80
2023-02-14T12:08:05.243Z,21.17
2023-02-14T12:10:33.759Z,23.55
2023-02-14T12:13:04.498Z,22.63
2023-02-14T12:15:42.451Z,24.17
2023-02-14T12:18:09.167Z,23.80
2023-02-14T12:20:44.115Z,23.55
2023-02-14T12:23:33.646Z,29.40
2023-02-14T12:26:13.413Z,26.35
2023-02-14T12:28:50.822Z,22.65
2023-02-14T12:31:18.678Z,22.10
2023-02-14T12:33:46.865Z,19.88
2023-02-14T12:36:47.158Z,25.52
2023-02-14T12:39:32.502Z,24.52
2023-02-14T12:42:00.168Z,23.52
2023-02-14T12:45:02.167Z,24.40
2023-02-14T12:47:31.625Z,27.70
2023-02-14T12:50:17.696Z,22.65
2023-02-14T12:52:56.712Z,26.55
2023-02-14T12:55:29.190Z,23.58
2023-02-14T12:58:19.863Z,26.48
2023-02-14T13:00:56.866Z,27.95
2023-02-14T13:04:01.344Z,28.88
2023-02-14T13:06:35.448Z,27.02
2023-02-14T13:09:17.185Z,27.70
2023-02-14T13:11:52.978Z,20.73
2023-02-14T13:14:36.337Z,22.92
2023-02-14T13:17:21.674Z,29.23
2023-02-14T13:20:00.387Z,25.25
2023-02-14T13:22:30.103Z,32.58
2023-02-14T13:25:31.679Z,25.40
2023-02-14T13:28:01.763Z,32.53
2023-02-14T13:30:32.415Z,33.25
2023-02-14T13:33:06.705Z,35.58
2023-02-14T13:35:37.237Z,30.85
2023-02-14T13:38:08.401Z,28.65
2023-02-14T13:40:36.473Z,27.55
2023-02-14T13:43:03.919Z,30.77
2023-02-14T13:45:32.699Z,19.40
2023-02-14T13:48:10.943Z,23.25
2023-02-14T13:50:54.574Z,28.50
2023-02-14T13:53:40.508Z,26.33
2023-02-14T13:56:31.054Z,35.05
2023-02-14T13:59:00.468Z,35.22
2023-02-14T14:01:35.722Z,40.25
2023-02-14T14:04:23.491Z,30.92
2023-02-14T14:07:13.712Z,33.45
2023-02-14T14:09:40.261Z,37.15
2023-02-14T14:12:26.705Z,33.67
2023-02-14T14:15:05.720Z,41.55
2023-02-14T14:17:33.618Z,39.38
2023-02-14T14:20:02.388Z,37.85
2023-02-14T14:22:29.435Z,48.28
2023-02-14T14:25:05.718Z,43.47
2023-02-14T14:27:35.861Z,45.70
2023-02-14T14:30:07.630Z,48.38
2023-02-14T14:32:38.382Z,42.95
2023-02-14T14:35:25.529Z,47.13
2023-02-14T14:37:57.743Z,45.85
2023-02-14T14:40:32.194Z,37.40
2023-02-14T14:43:09.788Z,34.70
2023-02-14T14:45:36.510Z,46.47
2023-02-14T14:48:10.056Z,41.65
2023-02-14T14:50:36.980Z,34.88
2023-02-14T14:53:09.716Z,33.40
2023-02-14T14:55:38.101Z,35.50
2023-02-14T14:58:09.083Z,33.85
2023-02-14T15:00:38.525Z,28.15
2023-02-14T15:03:11.849Z,26.98
2023-02-14T15:05:42.507Z,32.55
2023-02-14T15:08:21.585Z,37.90
2023-02-14T15:10:55.720Z,37.75
2023-02-14T15:13:57.446Z,33.67
2023-02-14T15:16:28.662Z,40.40
2023-02-14T15:19:10.527Z,34.08
2023-02-14T15:21:40.291Z,31.30
2023-02-14T15:24:13.385Z,32.17
2023-02-14T15:26:44.366Z,33.58
2023-02-14T15:29:22.388Z,32.95
2023-02-14T15:31:49.981Z,26.88
2023-02-14T15:34:24.423Z,34.15
2023-02-14T15:36:54.004Z,39.90
2023-02-14T15:39:25.796Z,36.17
2023-02-14T15:41:54.002Z,37.22
2023-02-14T15:44:23.143Z,41.75
2023-02-14T15:46:55.965Z,33.95
2023-02-14T15:49:30.099Z,35.35
2023-02-14T15:51:57.022Z,36.72
2023-02-14T15:54:45.723Z,39.35
2023-02-14T15:57:23.947Z,35.60
2023-02-14T15:59:51.201Z,33.83
2023-02-14T16:02:37.838Z,35.03
2023-02-14T16:05:17.787Z,34.17
2023-02-14T16:08:22.502Z,31.67
2023-02-14T16:11:02.657Z,34.00
2023-02-14T16:13:42.014Z,26.27
2023-02-14T16:16:11.224Z,35.50
2023-02-14T16:18:43.707Z,42.45
2023-02-14T16:21:12.321Z,34.80
2023-02-14T16:23:39.231Z,39.67
2023-02-14T16:26:06.951Z,39.90
2023-02-14T16:28:36.797Z,26.80
2023-02-14T16:31:10.229Z,32.28
2023-02-14T16:33:39.516Z,33.83
2023-02-14T16:36:27.844Z,33.97
2023-02-14T16:38:58.140Z,40.53
2023-02-14T16:41:27.678Z,45.17
2023-02-14T16:43:55.189Z,43.55
2023-02-14T16:46:25.603Z,38.72
2023-02-14T16:48:52.866Z,41.88
2023-02-14T16:51:25.326Z,39.75
2023-02-14T16:53:52.581Z,40.25
2023-02-14T16:56:46.601Z,40.78
2023-02-14T16:59:13.276Z,46.10
2023-02-14T17:01:40.968Z,40.90
2023-02-14T17:04:07.785Z,43.78
2023-02-14T17:06:40.029Z,47.50
2023-02-14T17:09:11.555Z,40.05
2023-02-14T17:11:48.255Z,37.00
2023-02-14T17:14:19.773Z,47.38
2023-02-14T17:16:49.300Z,45.80
2023-02-14T17:19:17.813Z,43.00
2023-02-14T17:21:44.643Z,37.85
2023-02-14T17:24:11.310Z,42.47
2023-02-14T17:26:38.157Z,46.97
2023-02-14T17:29:06.776Z,40.25
2023-02-14T17:31:34.578Z,51.47
2023-02-14T17:34:01.348Z,43.30
2023-02-14T17:36:28.245Z,43.83
2023-02-14T17:38:57.570Z,54.80
2023-02-14T17:41:26.546Z,61.45
2023-02-14T17:44:00.178Z,52.17
2023-02-14T17:46:28.808Z,43.60
2023-02-14T17:48:56.624Z,53.55
2023-02-14T17:51:24.261Z,63.22
2023-02-14T17:53:51.419Z,66.70
2023-02-14T17:56:21.943Z,53.83
2023-02-14T17:58:51.317Z,56.05
2023-02-14T18:01:25.363Z,47.33
2023-02-14T18:03:53.808Z,53.75
2023-02-14T18:06:21.273Z,67.15
2023-02-14T18:08:49.915Z,58.35
2023-02-14T18:11:18.815Z,63.95
2023-02-14T18:13:46.478Z,75.07
2023-02-14T18:16:18.602Z,70.13
2023-02-14T18:18:51.047Z,69.13
2023-02-14T18:21:21.077Z,64.60
2023-02-14T18:23:48.360Z,73.25
2023-02-14T18:26:16.396Z,71.70
2023-02-14T18:28:43.104Z,74.93
2023-02-14T18:31:12.716Z,78.07
2023-02-14T18:33:39.882Z,63.88
2023-02-14T18:36:12.605Z,73.28
2023-02-14T18:38:41.067Z,79.75
2023-02-14T18:41:10.234Z,67.35
2023-02-14T18:43:37.393Z,68.43
2023-02-14T18:46:05.420Z,75.95
2023-02-14T18:48:32.776Z,70.05
2023-02-14T18:51:37.280Z,68.22
2023-02-14T18:54:05.729Z,64.97
2023-02-14T18:56:38.491Z,66.22
2023-02-14T18:59:08.222Z,73.00
2023-02-14T19:01:38.483Z,70.40
2023-02-14T19:04:08.668Z,77.38
2023-02-14T19:06:36.189Z,69.95
2023-02-14T19:09:07.780Z,64.10
2023-02-14T19:11:38.677Z,50.20
2023-02-14T19:14:12.607Z,68.93
2023-02-14T19:16:43.879Z,61.70
2023-02-14T19:19:11.337Z,65.40
2023-02-14T19:21:38.538Z,60.63
2023-02-14T19:24:07.147Z,69.82
2023-02-14T19:26:39.922Z,64.53
2023-02-14T19:29:12.300Z,62.55
2023-02-14T19:34:14.728Z,60.83
2023-02-14T19:36:41.467Z,53.97
2023-02-14T19:39:08.361Z,54.30
2023-02-14T19:41:39.677Z,49.15
2023-02-14T19:44:09.099Z,55.00
2023-02-14T19:46:40.166Z,58.20
2023-02-14T19:49:08.034Z,76.43
2023-02-14T19:51:36.104Z,70.40
2023-02-14T19:54:12.798Z,74.43
2023-02-14T19:56:42.671Z,67.60
2023-02-14T19:59:10.503Z,73.97
2023-02-14T20:01:46.712Z,73.55
2023-02-14T20:04:20.258Z,74.47
2023-02-14T20:06:49.270Z,69.10
2023-02-14T20:09:19.888Z,61.88
2023-02-14T20:11:52.011Z,72.32
2023-02-14T20:17:12.190Z,58.92
2023-02-14T20:19:39.088Z,66.93
2023-02-14T20:22:08.245Z,62.05
2023-02-14T20:24:38.239Z,70.03
2023-02-14T20:27:08.186Z,63.25
2023-02-14T20:29:36.110Z,65.90
2023-02-14T20:32:05.009Z,71.18
2023-02-14T20:34:31.735Z,67.47
2023-02-14T20:37:01.918Z,64.28
2023-02-14T20:39:34.935Z,67.05
2023-02-14T20:42:08.413Z,73.45
2023-02-14T20:44:35.476Z,73.03
2023-02-14T20:47:08.038Z,70.57
2023-02-14T20:49:37.839Z,71.63
2023-02-14T20:52:07.270Z,77.82
2023-02-14T20:54:34.016Z,73.53
2023-02-14T20:57:00.607Z,65.93
2023-02-14T20:59:28.632Z,67.82
2023-02-14T21:01:59.569Z,60.78
2023-02-14T21:04:27.035Z,70.93
2023-02-14T21:06:55.191Z,66.50
2023-02-14T21:09:24.824Z,57.42
2023-02-14T21:11:54.128Z,80.38
2023-02-14T21:14:21.331Z,87.93
2023-02-14T21:16:48.337Z,74.80
2023-02-14T21:19:18.578Z,57.00
2023-02-14T21:21:45.917Z,63.05
2023-02-14T21:24:14.773Z,69.95
2023-02-14T21:26:42.406Z,52.70
2023-02-14T21:29:09.481Z,59.80
2023-02-14T21:31:37.810Z,61.38
2023-02-14T21:34:05.026Z,58.50
2023-02-14T21:36:35.595Z,62.72
2023-02-14T21:39:04.457Z,57.22
2023-02-14T21:41:31.731Z,71.10
2023-02-14T21:44:00.052Z,60.03
2023-02-14T21:46:31.864Z,58.97
2023-02-14T21:49:20.263Z,63.38
2023-02-14T21:51:47.516Z,66.40
2023-02-14T21:54:14.295Z,54.45
2023-02-14T21:56:41.580Z,61.55
2023-02-14T21:59:09.634Z,86.53
2023-02-14T22:01:37.732Z,104.40
2023-02-14T22:04:09.545Z,83.03
2023-02-14T22:06:38.759Z,79.07
2023-02-14T22:09:05.904Z,90.40
2023-02-14T22:11:32.829Z,84.88
2023-02-14T22:14:00.274Z,84.00
2023-02-14T22:16:27.075Z,92.05
2023-02-14T22:18:53.662Z,134.35
2023-02-14T22:21:23.571Z,63.33
2023-02-14T22:23:50.808Z,96.57
2023-02-14T22:26:18.760Z,131.52
2023-02-14T22:28:48.141Z,116.95
2023-02-14T22:31:16.253Z,126.20
2023-02-14T22:33:43.599Z,105.00
2023-02-14T22:36:12.516Z,103.75
2023-02-14T22:38:39.311Z,119.50
2023-02-14T22:41:20.608Z,135.48
2023-02-14T22:43:47.885Z,95.47
2023-02-14T22:46:17.439Z,86.47
2023-02-14T22:48:44.203Z,90.25
2023-02-14T22:51:28.784Z,93.35
2023-02-14T22:53:58.522Z,84.60
2023-02-14T22:56:31.077Z,80.82
2023-02-14T22:59:00.019Z,82.03
2023-02-14T23:01:27.103Z,75.00
2023-02-14T23:03:58.485Z,83.70
2023-02-14T23:06:27.408Z,98.37
2023-02-14T23:08:55.151Z,74.50
2023-02-14T23:11:28.173Z,69.45
2023-02-14T23:14:14.481Z,85.13
2023-02-14T23:17:00.992Z,76.95
2023-02-14T23:19:49.893Z,69.47
2023-02-14T23:22:22.410Z,86.28
2023-02-14T23:24:50.960Z,111.22
2023-02-14T23:27:20.122Z,101.10
2023-02-14T23:29:46.875Z,117.03
2023-02-14T23:32:14.115Z,101.78
2023-02-14T23:34:45.930Z,109.57
2023-02-14T23:37:13.990Z,124.57
2023-02-14T23:39:41.521Z,125.82
2023-02-14T23:42:11.031Z,137.98
2023-02-14T23:44:37.986Z,131.90
2023-02-14T23:47:07.156Z,122.07
2023-02-14T23:49:35.616Z,127.32
2023-02-14T23:52:02.569Z,104.03
2023-02-14T23:54:29.142Z,92.53
2023-02-14T23:56:57.433Z,93.57
2023-02-14T23:59:24.373Z,66.07
